Time;durP1;ratioP1;P1;durP2;ratioP2;P2;SDS_P1;SDS_P2;PMS_P1;PMS_P2;Temp;Humidity;BMP_temperature;BMP_pressure;BME280_temperature;BME280_humidity;BME280_pressure;Samples;Min_cycle;Max_cycle;Signal;HPM_P1;HPM_P2
2023/10/08 19:04:21;;;;;;;31.60;18.70;;;;;;;6.03;67.56;98077.66;102450;1292;638683;-87
2023/10/08 19:15:45;;;;;;;40.50;19.80;;;;;;;5.49;68.34;98085.98;103356;1277;99253;-87
2023/10/08 19:18:58;;;;;;;38.40;20.50;;;;;;;5.40;68.53;98084.60;98201;1294;102636;-87
2023/10/08 21:11:15;;;;;;;18.50;11.80;;;;;;;5.15;72.04;98112.61;107146;1249;95225;-79
2023/10/08 21:13:53;;;;;;;20.90;14.60;;;;;;;5.12;72.23;98115.64;106291;1256;100725;-80
2023/10/08 21:16:20;;;;;;;32.20;19.50;;;;;;;5.12;72.28;98116.34;105814;1267;101250;-79
2023/10/08 21:19:16;;;;;;;24.80;15.50;;;;;;;5.13;72.35;98117.45;106162;1258;95920;-80
2023/10/08 21:21:45;;;;;;;23.10;14.90;;;;;;;5.12;72.26;98121.55;105370;1263;96812;-81
2023/10/08 21:24:20;;;;;;;23.70;14.50;;;;;;;5.09;72.11;98126.15;105865;1257;96392;-81
2023/10/08 21:26:50;;;;;;;26.50;14.30;;;;;;;5.05;72.20;98127.45;105816;1257;99502;-80
2023/10/08 21:29:18;;;;;;;24.90;14.10;;;;;;;5.03;72.38;98123.90;106359;1252;100428;-90
2023/10/08 21:32:14;;;;;;;20.10;13.20;;;;;;;5.01;72.48;98119.70;107042;1251;100033;-82
2023/10/08 21:35:00;;;;;;;20.90;12.90;;;;;;;4.97;72.51;98118.83;106821;1248;95962;-80
2023/10/08 21:37:30;;;;;;;23.90;13.30;;;;;;;4.94;72.61;98120.94;106908;1248;96765;-82
2023/10/08 21:39:57;;;;;;;22.40;13.20;;;;;;;4.92;72.71;98116.31;106980;1248;99587;-81
2023/10/08 21:42:42;;;;;;;20.10;12.90;;;;;;;4.90;72.89;98118.47;106790;1251;96034;-80
2023/10/08 21:45:11;;;;;;;18.10;12.30;;;;;;;4.90;73.04;98124.05;107054;1239;98904;-80
2023/10/08 21:47:40;;;;;;;17.30;11.60;;;;;;;4.88;73.18;98121.33;107280;1239;95834;-80
2023/10/08 21:50:13;;;;;;;21.40;12.10;;;;;;;4.88;73.11;98117.14;107318;1242;96332;-78
2023/10/08 21:52:41;;;;;;;16.90;11.70;;;;;;;4.84;73.27;98119.80;107431;1238;99748;-80
2023/10/08 21:55:17;;;;;;;19.20;11.50;;;;;;;4.83;73.27;98118.19;107386;1242;100198;-81
2023/10/08 21:58:09;;;;;;;19.20;12.50;;;;;;;4.80;73.30;98118.17;107394;1238;98954;-81
2023/10/08 22:00:45;;;;;;;20.00;12.60;;;;;;;4.77;73.32;98116.34;107348;1237;95854;-80
2023/10/08 22:03:52;;;;;;;18.20;12.50;;;;;;;4.76;73.35;98114.11;107426;1252;95822;-80
2023/10/08 22:06:43;;;;;;;18.40;12.10;;;;;;;4.70;73.42;98109.79;106724;1251;99832;-81
2023/10/08 22:09:19;;;;;;;18.00;11.10;;;;;;;4.68;73.56;98109.68;106544;1254;100355;-81
2023/10/08 22:11:49;;;;;;;16.40;10.80;;;;;;;4.67;73.55;98110.34;106930;1260;99835;-91
2023/10/08 22:14:26;;;;;;;17.90;10.70;;;;;;;4.67;73.61;98107.48;107489;1248;96137;-91
2023/10/08 22:17:14;;;;;;;16.40;10.00;;;;;;;4.66;73.57;98109.30;107231;1251;96670;-90
2023/10/08 22:20:43;;;;;;;15.30;9.50;;;;;;;4.66;73.74;98105.08;107284;1252;100925;-91
2023/10/08 22:23:52;;;;;;;16.70;9.90;;;;;;;4.61;73.96;98099.33;106104;1254;100280;-91
2023/10/08 22:26:54;;;;;;;16.10;10.10;;;;;;;4.57;73.86;98100.27;105428;1268;98967;-79
2023/10/08 22:29:50;;;;;;;17.40;10.20;;;;;;;4.57;73.86;98105.63;104426;1268;96158;-78
2023/10/08 22:32:40;;;;;;;16.80;10.10;;;;;;;4.57;74.05;98111.51;104831;1271;96219;-91
2023/10/08 22:35:16;;;;;;;16.00;10.50;;;;;;;4.57;74.02;98107.29;104414;1276;100026;-91
2023/10/08 22:37:56;;;;;;;13.70;9.30;;;;;;;4.54;74.13;98107.57;104707;1272;108509;-91
2023/10/08 22:40:47;;;;;;;15.80;10.10;;;;;;;4.54;74.37;98106.48;104715;1277;100068;-89
2023/10/08 22:43:20;;;;;;;14.80;10.00;;;;;;;4.56;74.56;98109.46;104535;1266;96880;-91
2023/10/08 22:46:09;;;;;;;14.90;9.70;;;;;;;4.57;74.57;98109.04;104759;1266;95890;-80
2023/10/08 22:49:03;;;;;;;15.60;8.90;;;;;;;4.59;74.55;98110.42;104637;1266;100963;-80
2023/10/08 22:51:35;;;;;;;15.30;8.50;;;;;;;4.58;74.61;98101.62;104678;1266;100571;-83
2023/10/08 22:54:32;;;;;;;12.20;8.20;;;;;;;4.59;74.63;98093.19;104661;1272;100061;-80
2023/10/08 22:56:59;;;;;;;10.50;7.30;;;;;;;4.58;74.77;98085.58;104556;1271;96832;-80
2023/10/08 22:59:39;;;;;;;13.10;7.90;;;;;;;4.57;74.54;98086.64;104744;1271;96254;-80
2023/10/08 23:02:13;;;;;;;13.20;8.20;;;;;;;4.52;74.53;98087.46;104851;1268;99625;-79
2023/10/08 23:04:41;;;;;;;12.70;8.20;;;;;;;4.48;74.67;98083.76;105676;1259;101153;-80
2023/10/08 23:07:45;;;;;;;11.20;7.50;;;;;;;4.46;74.45;98089.51;106180;1257;98914;-81
2023/10/08 23:10:22;;;;;;;13.10;8.20;;;;;;;4.43;74.65;98090.75;107753;1245;96635;-91
2023/10/08 23:13:30;;;;;;;11.00;7.90;;;;;;;4.41;74.57;98089.19;108251;1240;95841;-91
2023/10/08 23:16:39;;;;;;;10.30;7.40;;;;;;;4.38;74.54;98093.20;107116;1251;101212;-78
2023/10/08 23:19:14;;;;;;;11.10;6.70;;;;;;;4.28;74.52;98095.98;106378;1251;100216;-78
2023/10/08 23:21:44;;;;;;;13.80;7.60;;;;;;;4.24;74.65;98097.30;106389;1253;98936;-78
2023/10/08 23:36:39;;;;;;;11.90;6.30;;;;;;;4.48;74.46;98088.77;104764;1273;643144;-77
2023/10/08 23:39:35;;;;;;;11.30;7.20;;;;;;;4.46;74.26;98076.63;102698;1255;5345626;-79
2023/10/08 23:42:31;;;;;;;12.40;7.00;;;;;;;4.28;74.35;98074.42;106159;1262;98488;-77
2023/10/08 23:45:41;;;;;;;9.10;6.30;;;;;;;4.18;74.48;98075.08;106207;1257;101571;-80
2023/10/08 23:48:30;;;;;;;11.50;6.10;;;;;;;4.10;74.41;98070.75;105971;1264;100045;-92
2023/10/08 23:51:38;;;;;;;12.10;5.80;;;;;;;4.01;74.28;98073.41;106575;1272;96252;-91
2023/10/08 23:54:58;;;;;;;10.70;5.60;;;;;;;3.94;74.56;98074.29;106862;1257;95956;-93
2023/10/08 23:58:17;;;;;;;8.00;5.20;;;;;;;3.88;74.49;98072.63;106772;1269;99415;-92
